sensor_id;sensor_type;location;lat;lon;timestamp;pressure;altitude;pressure_sealevel;temperature;humidity
10145;BME280;5113;41.822;23.564;2022-12-18T00:02:39;-11231.78;;;10.75;100.00
10145;BME280;5113;41.822;23.564;2022-12-18T00:05:47;-11227.97;;;10.62;100.00
10145;BME280;5113;41.822;23.564;2022-12-18T00:08:56;-11225.88;;;10.54;100.00
10145;BME280;5113;41.822;23.564;2022-12-18T00:12:03;-11230.94;;;10.72;100.00
10145;BME280;5113;41.822;23.564;2022-12-18T00:15:19;-11226.28;;;10.55;100.00
10145;BME280;5113;41.822;23.564;2022-12-18T00:18:25;-11227.28;;;10.59;100.00
10145;BME280;5113;41.822;23.564;2022-12-18T00:21:32;-11229.66;;;10.68;100.00
10145;BME280;5113;41.822;23.564;2022-12-18T00:24:39;-11229.09;;;10.66;100.00
10145;BME280;5113;41.822;23.564;2022-12-18T00:27:46;-11235.31;;;10.88;100.00
10145;BME280;5113;41.822;23.564;2022-12-18T00:30:59;-11234.59;;;10.85;100.00
10145;BME280;5113;41.822;23.564;2022-12-18T00:34:06;-11246.56;;;11.29;100.00
10145;BME280;5113;41.822;23.564;2022-12-18T00:37:12;-11247.69;;;11.33;100.00
10145;BME280;5113;41.822;23.564;2022-12-18T00:40:25;-11246.97;;;11.30;100.00
10145;BME280;5113;41.822;23.564;2022-12-18T00:43:31;-11246.00;;;11.27;100.00
10145;BME280;5113;41.822;23.564;2022-12-18T00:46:36;-11247.13;;;11.31;100.00
10145;BME280;5113;41.822;23.564;2022-12-18T00:49:44;-11245.28;;;11.24;100.00
10145;BME280;5113;41.822;23.564;2022-12-18T00:52:50;-11250.63;;;11.43;100.00
10145;BME280;5113;41.822;23.564;2022-12-18T00:55:58;-11245.56;;;11.25;100.00
10145;BME280;5113;41.822;23.564;2022-12-18T00:59:04;-11244.59;;;11.21;100.00
10145;BME280;5113;41.822;23.564;2022-12-18T01:02:11;-11246.00;;;11.27;100.00
10145;BME280;5113;41.822;23.564;2022-12-18T01:05:17;-11249.50;;;11.39;100.00
10145;BME280;5113;41.822;23.564;2022-12-18T01:08:24;-11251.63;;;11.47;100.00
10145;BME280;5113;41.822;23.564;2022-12-18T01:11:31;-11248.09;;;11.34;100.00
10145;BME280;5113;41.822;23.564;2022-12-18T01:14:38;-11247.97;;;11.34;100.00
10145;BME280;5113;41.822;23.564;2022-12-18T01:17:44;-11246.41;;;11.28;100.00
10145;BME280;5113;41.822;23.564;2022-12-18T01:20:50;-11241.47;;;11.10;100.00
10145;BME280;5113;41.822;23.564;2022-12-18T01:23:57;-11246.56;;;11.29;100.00
10145;BME280;5113;41.822;23.564;2022-12-18T01:27:05;-11247.41;;;11.32;100.00
10145;BME280;5113;41.822;23.564;2022-12-18T01:30:12;-11248.25;;;11.35;100.00
10145;BME280;5113;41.822;23.564;2022-12-18T01:33:18;-11248.81;;;11.37;100.00
10145;BME280;5113;41.822;23.564;2022-12-18T01:36:27;-11240.06;;;11.05;100.00
10145;BME280;5113;41.822;23.564;2022-12-18T01:39:35;-11243.47;;;11.17;100.00
10145;BME280;5113;41.822;23.564;2022-12-18T01:42:43;-11238.66;;;11.00;100.00
10145;BME280;5113;41.822;23.564;2022-12-18T01:45:49;-11242.59;;;11.14;100.00
10145;BME280;5113;41.822;23.564;2022-12-18T01:48:57;-11235.31;;;10.88;100.00
10145;BME280;5113;41.822;23.564;2022-12-18T01:52:04;-11235.88;;;10.90;100.00
10145;BME280;5113;41.822;23.564;2022-12-18T01:55:11;-11240.91;;;11.08;100.00
10145;BME280;5113;41.822;23.564;2022-12-18T01:58:23;-11240.34;;;11.06;100.00
10145;BME280;5113;41.822;23.564;2022-12-18T02:01:33;-11241.91;;;11.12;100.00
10145;BME280;5113;41.822;23.564;2022-12-18T02:04:40;-11240.06;;;11.05;100.00
10145;BME280;5113;41.822;23.564;2022-12-18T02:07:59;-11243.19;;;11.16;100.00
10145;BME280;5113;41.822;23.564;2022-12-18T02:11:15;-11243.47;;;11.17;100.00
10145;BME280;5113;41.822;23.564;2022-12-18T02:14:32;-11244.59;;;11.21;100.00
10145;BME280;5113;41.822;23.564;2022-12-18T02:17:47;-11242.59;;;11.14;100.00
10145;BME280;5113;41.822;23.564;2022-12-18T02:21:00;-11245.28;;;11.24;100.00
10145;BME280;5113;41.822;23.564;2022-12-18T02:24:18;-11241.19;;;11.09;100.00
10145;BME280;5113;41.822;23.564;2022-12-18T02:27:33;-11234.03;;;10.83;100.00
10145;BME280;5113;41.822;23.564;2022-12-18T02:30:42;-11238.53;;;11.00;100.00
10145;BME280;5113;41.822;23.564;2022-12-18T02:33:49;-11239.22;;;11.02;100.00
10145;BME280;5113;41.822;23.564;2022-12-18T02:36:57;-11238.38;;;10.99;100.00
10145;BME280;5113;41.822;23.564;2022-12-18T02:40:06;-11238.66;;;11.00;100.00
10145;BME280;5113;41.822;23.564;2022-12-18T02:43:15;-11234.31;;;10.84;100.00
10145;BME280;5113;41.822;23.564;2022-12-18T02:46:28;-11228.81;;;10.65;100.00
10145;BME280;5113;41.822;23.564;2022-12-18T03:05:52;-11235.03;;;10.87;100.00
10145;BME280;5113;41.822;23.564;2022-12-18T03:09:01;-11234.75;;;10.86;100.00
10145;BME280;5113;41.822;23.564;2022-12-18T03:12:12;-11237.00;;;10.94;100.00
10145;BME280;5113;41.822;23.564;2022-12-18T03:15:33;-11235.59;;;10.89;100.00
10145;BME280;5113;41.822;23.564;2022-12-18T03:18:45;-11232.75;;;10.79;100.00
10145;BME280;5113;41.822;23.564;2022-12-18T03:21:56;-11236.84;;;10.94;100.00
10145;BME280;5113;41.822;23.564;2022-12-18T03:25:06;-11227.28;;;10.59;100.00
10145;BME280;5113;41.822;23.564;2022-12-18T03:28:21;-11219.25;;;10.30;100.00
10145;BME280;5113;41.822;23.564;2022-12-18T03:31:29;-11224.03;;;10.47;100.00
10145;BME280;5113;41.822;23.564;2022-12-18T03:34:37;-11220.66;;;10.35;100.00
10145;BME280;5113;41.822;23.564;2022-12-18T03:37:45;-11217.72;;;10.24;100.00
10145;BME280;5113;41.822;23.564;2022-12-18T03:40:57;-11222.63;;;10.42;100.00
10145;BME280;5113;41.822;23.564;2022-12-18T03:44:11;-11219.53;;;10.31;100.00
10145;BME280;5113;41.822;23.564;2022-12-18T03:47:24;-11214.06;;;10.11;100.00
10145;BME280;5113;41.822;23.564;2022-12-18T03:50:40;-11221.78;;;10.39;100.00
10145;BME280;5113;41.822;23.564;2022-12-18T03:53:53;-11221.78;;;10.39;100.00
10145;BME280;5113;41.822;23.564;2022-12-18T03:57:05;-11219.81;;;10.32;100.00
10145;BME280;5113;41.822;23.564;2022-12-18T04:00:15;-11228.13;;;10.62;100.00
10145;BME280;5113;41.822;23.564;2022-12-18T04:03:23;-11225.03;;;10.51;100.00
10145;BME280;5113;41.822;23.564;2022-12-18T04:06:30;-11221.66;;;10.39;100.00
10145;BME280;5113;41.822;23.564;2022-12-18T04:09:43;-11224.59;;;10.49;100.00
10145;BME280;5113;41.822;23.564;2022-12-18T04:12:50;-11227.97;;;10.62;100.00
10145;BME280;5113;41.822;23.564;2022-12-18T04:15:56;-11223.47;;;10.45;100.00
10145;BME280;5113;41.822;23.564;2022-12-18T04:19:03;-11223.34;;;10.45;100.00
10145;BME280;5113;41.822;23.564;2022-12-18T04:22:09;-11225.44;;;10.52;100.00
10145;BME280;5113;41.822;23.564;2022-12-18T04:25:17;-11224.88;;;10.50;100.00
10145;BME280;5113;41.822;23.564;2022-12-18T04:28:23;-11219.25;;;10.30;100.00
10145;BME280;5113;41.822;23.564;2022-12-18T04:31:29;-11220.81;;;10.36;100.00
10145;BME280;5113;41.822;23.564;2022-12-18T04:34:35;-11222.34;;;10.41;100.00
10145;BME280;5113;41.822;23.564;2022-12-18T04:37:42;-11215.59;;;10.17;100.00
10145;BME280;5113;41.822;23.564;2022-12-18T04:40:49;-11218.13;;;10.26;100.00
10145;BME280;5113;41.822;23.564;2022-12-18T04:43:56;-11218.13;;;10.26;100.00
10145;BME280;5113;41.822;23.564;2022-12-18T04:47:02;-11218.97;;;10.29;100.00
10145;BME280;5113;41.822;23.564;2022-12-18T04:50:09;-11220.66;;;10.35;100.00
10145;BME280;5113;41.822;23.564;2022-12-18T04:53:15;-11220.09;;;10.33;100.00
10145;BME280;5113;41.822;23.564;2022-12-18T04:56:23;-11217.16;;;10.22;100.00
10145;BME280;5113;41.822;23.564;2022-12-18T04:59:29;-11220.66;;;10.35;100.00
10145;BME280;5113;41.822;23.564;2022-12-18T05:02:35;-11219.97;;;10.33;100.00
10145;BME280;5113;41.822;23.564;2022-12-18T05:05:42;-11219.25;;;10.30;100.00
10145;BME280;5113;41.822;23.564;2022-12-18T05:08:48;-11222.34;;;10.41;100.00
10145;BME280;5113;41.822;23.564;2022-12-18T05:11:56;-11216.03;;;10.18;100.00
10145;BME280;5113;41.822;23.564;2022-12-18T05:15:06;-11217.84;;;10.25;100.00
10145;BME280;5113;41.822;23.564;2022-12-18T05:18:12;-11215.88;;;10.18;100.00
10145;BME280;5113;41.822;23.564;2022-12-18T05:21:19;-11215.47;;;10.16;100.00
10145;BME280;5113;41.822;23.564;2022-12-18T05:24:25;-11210.25;;;9.98;100.00
10145;BME280;5113;41.822;23.564;2022-12-18T05:27:33;-11214.63;;;10.13;100.00
10145;BME280;5113;41.822;23.564;2022-12-18T05:30:48;-11214.34;;;10.12;100.00
10145;BME280;5113;41.822;23.564;2022-12-18T05:33:54;-11211.94;;;10.04;100.00
10145;BME280;5113;41.822;23.564;2022-12-18T05:37:00;-11210.69;;;9.99;100.00
10145;BME280;5113;41.822;23.564;2022-12-18T05:40:07;-11211.94;;;10.04;100.00
10145;BME280;5113;41.822;23.564;2022-12-18T05:43:15;-11204.22;;;9.76;100.00
10145;BME280;5113;41.822;23.564;2022-12-18T05:46:26;-11206.88;;;9.85;100.00
10145;BME280;5113;41.822;23.564;2022-12-18T05:49:32;-11205.06;;;9.79;100.00
10145;BME280;5113;41.822;23.564;2022-12-18T05:52:38;-11206.59;;;9.84;100.00
10145;BME280;5113;41.822;23.564;2022-12-18T05:55:47;-11208.56;;;9.91;100.00
10145;BME280;5113;41.822;23.564;2022-12-18T05:58:55;-11207.16;;;9.86;100.00
10145;BME280;5113;41.822;23.564;2022-12-18T06:02:01;-11199.56;;;9.59;100.00
10145;BME280;5113;41.822;23.564;2022-12-18T06:05:08;-11194.94;;;9.42;100.00
10145;BME280;5113;41.822;23.564;2022-12-18T06:08:15;-11206.31;;;9.83;100.00
10145;BME280;5113;41.822;23.564;2022-12-18T06:11:23;-11208.28;;;9.90;100.00
10145;BME280;5113;41.822;23.564;2022-12-18T06:14:31;-11209.00;;;9.93;100.00
10145;BME280;5113;41.822;23.564;2022-12-18T06:17:37;-11202.38;;;9.69;100.00
10145;BME280;5113;41.822;23.564;2022-12-18T06:20:43;-11217.84;;;10.25;100.00
10145;BME280;5113;41.822;23.564;2022-12-18T06:23:49;-11213.91;;;10.11;100.00
10145;BME280;5113;41.822;23.564;2022-12-18T06:26:55;-11215.88;;;10.18;100.00
10145;BME280;5113;41.822;23.564;2022-12-18T06:30:05;-11217.56;;;10.24;100.00
10145;BME280;5113;41.822;23.564;2022-12-18T06:33:11;-11210.97;;;10.00;100.00
10145;BME280;5113;41.822;23.564;2022-12-18T06:36:18;-11207.16;;;9.86;100.00
10145;BME280;5113;41.822;23.564;2022-12-18T06:39:24;-11212.78;;;10.07;100.00
10145;BME280;5113;41.822;23.564;2022-12-18T06:42:32;-11208.00;;;9.89;100.00
10145;BME280;5113;41.822;23.564;2022-12-18T06:45:40;-11214.63;;;10.13;100.00
10145;BME280;5113;41.822;23.564;2022-12-18T06:48:48;-11211.38;;;10.02;100.00
10145;BME280;5113;41.822;23.564;2022-12-18T06:51:54;-11204.63;;;9.77;100.00
10145;BME280;5113;41.822;23.564;2022-12-18T06:55:01;-11215.19;;;10.15;100.00
10145;BME280;5113;41.822;23.564;2022-12-18T06:58:07;-11209.13;;;9.93;100.00
10145;BME280;5113;41.822;23.564;2022-12-18T07:01:16;-11218.41;;;10.27;100.00
10145;BME280;5113;41.822;23.564;2022-12-18T07:04:27;-11216.44;;;10.20;100.00
10145;BME280;5113;41.822;23.564;2022-12-18T07:07:33;-11214.75;;;10.14;100.00
10145;BME280;5113;41.822;23.564;2022-12-18T07:10:43;-11221.50;;;10.38;100.00
10145;BME280;5113;41.822;23.564;2022-12-18T07:13:52;-11221.78;;;10.39;100.00
10145;BME280;5113;41.822;23.564;2022-12-18T07:17:00;-11217.28;;;10.23;100.00
10145;BME280;5113;41.822;23.564;2022-12-18T07:20:08;-11224.31;;;10.48;100.00
10145;BME280;5113;41.822;23.564;2022-12-18T07:23:14;-11223.62;;;10.46;100.00
10145;BME280;5113;41.822;23.564;2022-12-18T07:26:21;-11225.59;;;10.53;100.00
10145;BME280;5113;41.822;23.564;2022-12-18T07:29:27;-11227.00;;;10.58;100.00
10145;BME280;5113;41.822;23.564;2022-12-18T07:32:35;-11232.19;;;10.77;100.00
10145;BME280;5113;41.822;23.564;2022-12-18T07:35:41;-11225.03;;;10.51;100.00
10145;BME280;5113;41.822;23.564;2022-12-18T07:38:48;-11223.62;;;10.46;100.00
10145;BME280;5113;41.822;23.564;2022-12-18T07:41:56;-11225.44;;;10.52;100.00
10145;BME280;5113;41.822;23.564;2022-12-18T07:45:20;-11228.13;;;10.62;100.00
10145;BME280;5113;41.822;23.564;2022-12-18T07:48:27;-11230.50;;;10.71;100.00
10145;BME280;5113;41.822;23.564;2022-12-18T07:51:34;-11232.47;;;10.78;100.00
10145;BME280;5113;41.822;23.564;2022-12-18T07:54:40;-11231.91;;;10.76;100.00
10145;BME280;5113;41.822;23.564;2022-12-18T07:57:47;-11227.41;;;10.59;100.00
10145;BME280;5113;41.822;23.564;2022-12-18T08:01:02;-11228.41;;;10.63;100.00
10145;BME280;5113;41.822;23.564;2022-12-18T08:04:11;-11229.94;;;10.69;100.00
10145;BME280;5113;41.822;23.564;2022-12-18T08:07:17;-11215.47;;;10.16;100.00
10145;BME280;5113;41.822;23.564;2022-12-18T08:10:23;-11215.88;;;10.18;100.00
10145;BME280;5113;41.822;23.564;2022-12-18T08:13:29;-11214.19;;;10.12;100.00
10145;BME280;5113;41.822;23.564;2022-12-18T08:16:36;-11214.19;;;10.12;100.00
10145;BME280;5113;41.822;23.564;2022-12-18T08:19:44;-11215.88;;;10.18;100.00
10145;BME280;5113;41.822;23.564;2022-12-18T08:22:50;-11222.50;;;10.42;100.00
10145;BME280;5113;41.822;23.564;2022-12-18T08:25:58;-11222.34;;;10.41;100.00
10145;BME280;5113;41.822;23.564;2022-12-18T08:29:04;-11219.53;;;10.31;100.00
10145;BME280;5113;41.822;23.564;2022-12-18T08:32:10;-11224.03;;;10.47;100.00
10145;BME280;5113;41.822;23.564;2022-12-18T08:35:18;-11226.00;;;10.54;100.00
10145;BME280;5113;41.822;23.564;2022-12-18T08:38:25;-11213.78;;;10.10;100.00
10145;BME280;5113;41.822;23.564;2022-12-18T08:41:31;-11219.25;;;10.30;100.00
10145;BME280;5113;41.822;23.564;2022-12-18T08:44:37;-11225.16;;;10.51;100.00
10145;BME280;5113;41.822;23.564;2022-12-18T08:47:43;-11213.91;;;10.11;100.00
10145;BME280;5113;41.822;23.564;2022-12-18T08:50:56;-11223.47;;;10.45;100.00
10145;BME280;5113;41.822;23.564;2022-12-18T08:54:03;-11226.44;;;10.56;100.00
10145;BME280;5113;41.822;23.564;2022-12-18T08:57:10;-11214.19;;;10.12;100.00
10145;BME280;5113;41.822;23.564;2022-12-18T09:00:17;-11225.44;;;10.52;100.00
10145;BME280;5113;41.822;23.564;2022-12-18T09:03:24;-11225.59;;;10.53;100.00
10145;BME280;5113;41.822;23.564;2022-12-18T09:06:31;-11204.91;;;9.78;100.00
10145;BME280;5113;41.822;23.564;2022-12-18T09:09:38;-11212.66;;;10.06;100.00
10145;BME280;5113;41.822;23.564;2022-12-18T09:12:44;-11210.13;;;9.97;100.00
10145;BME280;5113;41.822;23.564;2022-12-18T09:15:53;-11209.97;;;9.97;100.00
10145;BME280;5113;41.822;23.564;2022-12-18T09:19:01;-11209.41;;;9.94;100.00
10145;BME280;5113;41.822;23.564;2022-12-18T09:22:09;-11204.63;;;9.77;100.00
10145;BME280;5113;41.822;23.564;2022-12-18T09:25:16;-11209.13;;;9.93;100.00
10145;BME280;5113;41.822;23.564;2022-12-18T09:28:23;-11194.50;;;9.41;100.00
10145;BME280;5113;41.822;23.564;2022-12-18T09:31:29;-11202.66;;;9.70;100.00
10145;BME280;5113;41.822;23.564;2022-12-18T09:34:36;-11212.66;;;10.06;100.00
10145;BME280;5113;41.822;23.564;2022-12-18T09:37:44;-11206.31;;;9.83;100.00
10145;BME280;5113;41.822;23.564;2022-12-18T09:40:52;-11205.47;;;9.80;100.00
10145;BME280;5113;41.822;23.564;2022-12-18T09:44:01;-11236.00;;;10.90;100.00
10145;BME280;5113;41.822;23.564;2022-12-18T09:47:12;-11223.19;;;10.44;100.00
10145;BME280;5113;41.822;23.564;2022-12-18T09:50:25;-11223.47;;;10.45;100.00
10145;BME280;5113;41.822;23.564;2022-12-18T09:53:37;-11224.03;;;10.47;100.00
10145;BME280;5113;41.822;23.564;2022-12-18T09:56:45;-11224.59;;;10.49;100.00
10145;BME280;5113;41.822;23.564;2022-12-18T09:59:55;-11218.41;;;10.27;100.00
10145;BME280;5113;41.822;23.564;2022-12-18T10:03:08;-11235.16;;;10.87;100.00
10145;BME280;5113;41.822;23.564;2022-12-18T10:06:20;-11223.91;;;10.47;100.00
10145;BME280;5113;41.822;23.564;2022-12-18T10:09:35;-11220.38;;;10.34;100.00
10145;BME280;5113;41.822;23.564;2022-12-18T10:12:48;-11225.72;;;10.53;100.00
10145;BME280;5113;41.822;23.564;2022-12-18T10:16:11;-11218.41;;;10.27;100.00
10145;BME280;5113;41.822;23.564;2022-12-18T10:19:29;-11223.19;;;10.44;100.00
10145;BME280;5113;41.822;23.564;2022-12-18T10:22:50;-11238.94;;;11.01;100.00
10145;BME280;5113;41.822;23.564;2022-12-18T10:26:03;-11237.84;;;10.97;100.00
10145;BME280;5113;41.822;23.564;2022-12-18T10:29:12;-11218.41;;;10.27;100.00
10145;BME280;5113;41.822;23.564;2022-12-18T10:32:20;-11217.44;;;10.23;100.00
10145;BME280;5113;41.822;23.564;2022-12-18T10:35:26;-11215.88;;;10.18;100.00
10145;BME280;5113;41.822;23.564;2022-12-18T10:38:34;-11223.75;;;10.46;100.00
10145;BME280;5113;41.822;23.564;2022-12-18T10:41:41;-11238.38;;;10.99;100.00
10145;BME280;5113;41.822;23.564;2022-12-18T10:45:01;-11233.03;;;10.80;100.00
10145;BME280;5113;41.822;23.564;2022-12-18T10:48:19;-11220.53;;;10.35;100.00
10145;BME280;5113;41.822;23.564;2022-12-18T10:51:28;-11228.13;;;10.62;100.00
10145;BME280;5113;41.822;23.564;2022-12-18T10:54:36;-11226.44;;;10.56;100.00
10145;BME280;5113;41.822;23.564;2022-12-18T10:57:45;-11213.34;;;10.09;100.00
10145;BME280;5113;41.822;23.564;2022-12-18T11:01:07;-11223.19;;;10.44;100.00
10145;BME280;5113;41.822;23.564;2022-12-18T11:04:17;-11233.03;;;10.80;100.00
10145;BME280;5113;41.822;23.564;2022-12-18T11:07:24;-11239.22;;;11.02;100.00
10145;BME280;5113;41.822;23.564;2022-12-18T11:10:31;-11232.75;;;10.79;100.00
10145;BME280;5113;41.822;23.564;2022-12-18T11:13:40;-11230.22;;;10.70;100.00
10145;BME280;5113;41.822;23.564;2022-12-18T11:16:47;-11233.88;;;10.83;100.00
10145;BME280;5113;41.822;23.564;2022-12-18T11:20:22;-11223.75;;;10.46;100.00
10145;BME280;5113;41.822;23.564;2022-12-18T11:23:29;-11222.06;;;10.40;100.00
10145;BME280;5113;41.822;23.564;2022-12-18T11:26:36;-11220.38;;;10.34;100.00
10145;BME280;5113;41.822;23.564;2022-12-18T11:29:49;-11218.97;;;10.29;100.00
10145;BME280;5113;41.822;23.564;2022-12-18T11:33:01;-11222.06;;;10.40;100.00
10145;BME280;5113;41.822;23.564;2022-12-18T11:36:09;-11232.91;;;10.79;100.00
10145;BME280;5113;41.822;23.564;2022-12-18T11:39:19;-11233.19;;;10.80;100.00
10145;BME280;5113;41.822;23.564;2022-12-18T11:42:32;-11226.00;;;10.54;100.00
10145;BME280;5113;41.822;23.564;2022-12-18T11:45:48;-11222.63;;;10.42;100.00
10145;BME280;5113;41.822;23.564;2022-12-18T11:49:00;-11225.16;;;10.51;100.00
10145;BME280;5113;41.822;23.564;2022-12-18T11:52:12;-11220.66;;;10.35;100.00
10145;BME280;5113;41.822;23.564;2022-12-18T11:55:28;-11228.25;;;10.63;100.00
10145;BME280;5113;41.822;23.564;2022-12-18T11:58:45;-11217.56;;;10.24;100.00
10145;BME280;5113;41.822;23.564;2022-12-18T12:01:57;-11213.34;;;10.09;100.00
10145;BME280;5113;41.822;23.564;2022-12-18T12:05:18;-11224.88;;;10.50;100.00
10145;BME280;5113;41.822;23.564;2022-12-18T12:08:36;-11213.06;;;10.08;100.00
10145;BME280;5113;41.822;23.564;2022-12-18T12:11:57;-11221.78;;;10.39;100.00
10145;BME280;5113;41.822;23.564;2022-12-18T12:15:16;-11215.47;;;10.16;100.00
10145;BME280;5113;41.822;23.564;2022-12-18T12:18:31;-11209.97;;;9.97;100.00
10145;BME280;5113;41.822;23.564;2022-12-18T12:21:42;-11214.06;;;10.11;100.00
10145;BME280;5113;41.822;23.564;2022-12-18T12:24:56;-11222.34;;;10.41;100.00
10145;BME280;5113;41.822;23.564;2022-12-18T12:28:17;-11220.09;;;10.33;100.00
10145;BME280;5113;41.822;23.564;2022-12-18T12:31:33;-11215.31;;;10.16;100.00
10145;BME280;5113;41.822;23.564;2022-12-18T12:34:55;-11219.25;;;10.30;100.00
10145;BME280;5113;41.822;23.564;2022-12-18T12:38:12;-11209.56;;;9.95;100.00
10145;BME280;5113;41.822;23.564;2022-12-18T12:41:22;-11209.97;;;9.97;100.00
10145;BME280;5113;41.822;23.564;2022-12-18T12:44:51;-11214.06;;;10.11;100.00
10145;BME280;5113;41.822;23.564;2022-12-18T12:48:02;-11220.09;;;10.33;100.00
10145;BME280;5113;41.822;23.564;2022-12-18T12:51:16;-11220.38;;;10.34;100.00
10145;BME280;5113;41.822;23.564;2022-12-18T12:54:25;-11217.72;;;10.24;100.00
10145;BME280;5113;41.822;23.564;2022-12-18T12:57:36;-11197.03;;;9.50;100.00
10145;BME280;5113;41.822;23.564;2022-12-18T13:02:06;-11197.31;;;9.51;100.00
10145;BME280;5113;41.822;23.564;2022-12-18T13:05:26;-11207.44;;;9.87;100.00
10145;BME280;5113;41.822;23.564;2022-12-18T13:08:53;-11200.97;;;9.64;100.00
10145;BME280;5113;41.822;23.564;2022-12-18T13:12:03;-11198.16;;;9.54;100.00
10145;BME280;5113;41.822;23.564;2022-12-18T13:15:40;-11193.09;;;9.36;100.00
10145;BME280;5113;41.822;23.564;2022-12-18T13:18:50;-11193.38;;;9.37;100.00
10145;BME280;5113;41.822;23.564;2022-12-18T13:21:57;-11184.09;;;9.03;100.00
10145;BME280;5113;41.822;23.564;2022-12-18T13:25:27;-11181.00;;;8.92;100.00
10145;BME280;5113;41.822;23.564;2022-12-18T13:28:52;-11178.75;;;8.84;100.00
10145;BME280;5113;41.822;23.564;2022-12-18T13:32:00;-11180.31;;;8.89;100.00
10145;BME280;5113;41.822;23.564;2022-12-18T13:35:38;-11169.34;;;8.50;100.00
10145;BME280;5113;41.822;23.564;2022-12-18T13:38:44;-11173.16;;;8.64;100.00
10145;BME280;5113;41.822;23.564;2022-12-18T13:41:53;-11180.88;;;8.91;100.00
10145;BME280;5113;41.822;23.564;2022-12-18T13:45:48;-11165.41;;;8.36;100.00
10145;BME280;5113;41.822;23.564;2022-12-18T13:48:58;-11168.78;;;8.48;100.00
10145;BME280;5113;41.822;23.564;2022-12-18T13:52:16;-11180.59;;;8.90;100.00
10145;BME280;5113;41.822;23.564;2022-12-18T13:55:23;-11162.88;;;8.26;100.00
10145;BME280;5113;41.822;23.564;2022-12-18T13:58:31;-11167.09;;;8.42;100.00
10145;BME280;5113;41.822;23.564;2022-12-18T14:01:42;-11156.00;;;8.02;100.00
10145;BME280;5113;41.822;23.564;2022-12-18T14:04:50;-11159.78;;;8.15;100.00
10145;BME280;5113;41.822;23.564;2022-12-18T14:08:01;-11163.88;;;8.30;100.00
10145;BME280;5113;41.822;23.564;2022-12-18T14:11:19;-11163.31;;;8.28;100.00
10145;BME280;5113;41.822;23.564;2022-12-18T14:14:28;-11154.03;;;7.94;100.00
10145;BME280;5113;41.822;23.564;2022-12-18T14:17:37;-11167.38;;;8.43;100.00
10145;BME280;5113;41.822;23.564;2022-12-18T14:20:44;-11165.00;;;8.34;100.00
10145;BME280;5113;41.822;23.564;2022-12-18T14:24:05;-11173.72;;;8.66;100.00
10145;BME280;5113;41.822;23.564;2022-12-18T14:27:20;-11158.53;;;8.11;100.00
10145;BME280;5113;41.822;23.564;2022-12-18T14:30:30;-11181.84;;;8.95;100.00
10145;BME280;5113;41.822;23.564;2022-12-18T14:33:38;-11161.06;;;8.20;100.00
10145;BME280;5113;41.822;23.564;2022-12-18T14:36:52;-11161.75;;;8.22;100.00
10145;BME280;5113;41.822;23.564;2022-12-18T14:40:01;-11158.09;;;8.09;100.00
10145;BME280;5113;41.822;23.564;2022-12-18T14:43:20;-11155.56;;;8.00;100.00
10145;BME280;5113;41.822;23.564;2022-12-18T14:46:34;-11153.59;;;7.93;100.00
10145;BME280;5113;41.822;23.564;2022-12-18T14:49:41;-11153.88;;;7.94;100.00
10145;BME280;5113;41.822;23.564;2022-12-18T14:52:48;-11149.81;;;7.79;100.00
10145;BME280;5113;41.822;23.564;2022-12-18T14:55:55;-11151.63;;;7.86;100.00
10145;BME280;5113;41.822;23.564;2022-12-18T14:59:03;-11151.91;;;7.87;100.00
10145;BME280;5113;41.822;23.564;2022-12-18T15:02:18;-11151.63;;;7.86;100.00
10145;BME280;5113;41.822;23.564;2022-12-18T15:05:28;-11151.63;;;7.86;100.00
10145;BME280;5113;41.822;23.564;2022-12-18T15:08:36;-11144.91;;;7.61;100.00
10145;BME280;5113;41.822;23.564;2022-12-18T15:11:46;-11156.28;;;8.03;100.00
10145;BME280;5113;41.822;23.564;2022-12-18T15:14:53;-11139.69;;;7.43;100.00
10145;BME280;5113;41.822;23.564;2022-12-18T15:57:03;-11137.16;;;7.34;100.00
10145;BME280;5113;41.822;23.564;2022-12-18T16:00:27;-11129.16;;;7.05;100.00
10145;BME280;5113;41.822;23.564;2022-12-18T16:03:33;-11131.41;;;7.13;100.00
10145;BME280;5113;41.822;23.564;2022-12-18T16:06:39;-11125.38;;;6.91;100.00
10145;BME280;5113;41.822;23.564;2022-12-18T16:10:06;-11128.88;;;7.04;100.00
10145;BME280;5113;41.822;23.564;2022-12-18T16:13:16;-11127.06;;;6.97;100.00
10145;BME280;5113;41.822;23.564;2022-12-18T16:16:24;-11128.47;;;7.02;100.00
10145;BME280;5113;41.822;23.564;2022-12-18T16:19:32;-11127.47;;;6.99;100.00
10145;BME280;5113;41.822;23.564;2022-12-18T16:22:38;-11126.06;;;6.93;100.00
10145;BME280;5113;41.822;23.564;2022-12-18T16:25:45;-11124.25;;;6.87;100.00
10145;BME280;5113;41.822;23.564;2022-12-18T16:28:52;-11123.41;;;6.84;100.00
10145;BME280;5113;41.822;23.564;2022-12-18T16:32:00;-11124.94;;;6.89;100.00
10145;BME280;5113;41.822;23.564;2022-12-18T16:35:09;-11126.50;;;6.95;100.00
10145;BME280;5113;41.822;23.564;2022-12-18T16:38:16;-11131.69;;;7.14;100.00
10145;BME280;5113;41.822;23.564;2022-12-18T16:41:22;-11122.84;;;6.82;100.00
10145;BME280;5113;41.822;23.564;2022-12-18T16:57:19;-11131.69;;;7.14;100.00
10145;BME280;5113;41.822;23.564;2022-12-18T17:00:29;-11129.72;;;7.07;100.00
10145;BME280;5113;41.822;23.564;2022-12-18T17:03:35;-11127.91;;;7.00;100.00
10145;BME280;5113;41.822;23.564;2022-12-18T17:06:44;-11127.63;;;6.99;100.00
10145;BME280;5113;41.822;23.564;2022-12-18T17:09:56;-11122.69;;;6.81;100.00
10145;BME280;5113;41.822;23.564;2022-12-18T17:13:04;-11124.81;;;6.89;100.00
10145;BME280;5113;41.822;23.564;2022-12-18T17:16:10;-11126.22;;;6.94;100.00
10145;BME280;5113;41.822;23.564;2022-12-18T17:32:05;-11114.56;;;6.52;100.00
10145;BME280;5113;41.822;23.564;2022-12-18T17:35:11;-11116.25;;;6.58;100.00
10145;BME280;5113;41.822;23.564;2022-12-18T17:38:17;-11121.28;;;6.76;100.00
10145;BME280;5113;41.822;23.564;2022-12-18T17:41:25;-11115.53;;;6.55;100.00
10145;BME280;5113;41.822;23.564;2022-12-18T17:44:31;-11109.63;;;6.34;100.00
10145;BME280;5113;41.822;23.564;2022-12-18T17:47:40;-11107.53;;;6.26;100.00